sensor_id;sensor_type;location;lat;lon;timestamp;P1;durP1;ratioP1;P2;durP2;ratioP2
20283;SDS011;10301;50.832;4.080;2022-09-03T00:00:15;10.77;;;6.80;;
20283;SDS011;10301;50.832;4.080;2022-09-03T00:05:55;11.38;;;7.35;;
20283;SDS011;10301;50.832;4.080;2022-09-03T00:08:36;11.45;;;7.40;;
20283;SDS011;10301;50.832;4.080;2022-09-03T00:11:21;10.75;;;7.78;;
20283;SDS011;10301;50.832;4.080;2022-09-03T00:16:53;10.45;;;7.40;;
20283;SDS011;10301;50.832;4.080;2022-09-03T00:19:56;8.63;;;7.18;;
20283;SDS011;10301;50.832;4.080;2022-09-03T00:22:27;10.15;;;7.22;;
20283;SDS011;10301;50.832;4.080;2022-09-03T00:25:06;10.20;;;6.63;;
20283;SDS011;10301;50.832;4.080;2022-09-03T00:27:38;9.50;;;7.53;;
20283;SDS011;10301;50.832;4.080;2022-09-03T00:30:10;11.30;;;7.40;;
20283;SDS011;10301;50.832;4.080;2022-09-03T00:32:40;9.50;;;7.32;;
20283;SDS011;10301;50.832;4.080;2022-09-03T00:35:46;12.82;;;7.80;;
20283;SDS011;10301;50.832;4.080;2022-09-03T00:38:11;11.80;;;7.35;;
20283;SDS011;10301;50.832;4.080;2022-09-03T00:46:32;11.82;;;7.43;;
20283;SDS011;10301;50.832;4.080;2022-09-03T01:08:31;12.38;;;7.93;;
20283;SDS011;10301;50.832;4.080;2022-09-03T01:13:49;11.32;;;7.93;;
20283;SDS011;10301;50.832;4.080;2022-09-03T01:16:30;11.63;;;8.50;;
20283;SDS011;10301;50.832;4.080;2022-09-03T01:19:09;13.23;;;8.57;;
20283;SDS011;10301;50.832;4.080;2022-09-03T01:24:58;12.07;;;7.32;;
20283;SDS011;10301;50.832;4.080;2022-09-03T01:30:11;8.93;;;7.18;;
20283;SDS011;10301;50.832;4.080;2022-09-03T01:40:51;11.85;;;7.63;;
20283;SDS011;10301;50.832;4.080;2022-09-03T01:43:45;10.05;;;7.28;;
20283;SDS011;10301;50.832;4.080;2022-09-03T01:46:40;9.55;;;7.43;;
20283;SDS011;10301;50.832;4.080;2022-09-03T01:52:05;9.35;;;7.38;;
20283;SDS011;10301;50.832;4.080;2022-09-03T01:54:57;12.90;;;7.93;;
20283;SDS011;10301;50.832;4.080;2022-09-03T01:57:55;10.20;;;6.97;;
20283;SDS011;10301;50.832;4.080;2022-09-03T02:00:45;10.63;;;8.40;;
20283;SDS011;10301;50.832;4.080;2022-09-03T02:03:17;12.00;;;8.65;;
20283;SDS011;10301;50.832;4.080;2022-09-03T02:05:43;12.30;;;9.25;;
20283;SDS011;10301;50.832;4.080;2022-09-03T02:08:10;12.18;;;8.85;;
20283;SDS011;10301;50.832;4.080;2022-09-03T02:15:45;13.25;;;9.77;;
20283;SDS011;10301;50.832;4.080;2022-09-03T02:18:16;15.18;;;9.55;;
20283;SDS011;10301;50.832;4.080;2022-09-03T02:20:44;13.45;;;9.63;;
20283;SDS011;10301;50.832;4.080;2022-09-03T02:23:12;12.73;;;8.18;;
20283;SDS011;10301;50.832;4.080;2022-09-03T02:25:40;12.75;;;8.52;;
20283;SDS011;10301;50.832;4.080;2022-09-03T02:28:09;11.50;;;8.40;;
20283;SDS011;10301;50.832;4.080;2022-09-03T02:30:36;11.88;;;8.60;;
20283;SDS011;10301;50.832;4.080;2022-09-03T02:33:02;10.88;;;7.95;;
20283;SDS011;10301;50.832;4.080;2022-09-03T02:35:27;13.32;;;8.73;;
20283;SDS011;10301;50.832;4.080;2022-09-03T02:37:53;11.48;;;8.63;;
20283;SDS011;10301;50.832;4.080;2022-09-03T02:40:19;10.65;;;8.02;;
20283;SDS011;10301;50.832;4.080;2022-09-03T02:42:44;13.43;;;8.77;;
20283;SDS011;10301;50.832;4.080;2022-09-03T02:47:49;16.42;;;9.10;;
20283;SDS011;10301;50.832;4.080;2022-09-03T02:50:19;11.98;;;8.40;;
20283;SDS011;10301;50.832;4.080;2022-09-03T02:52:44;11.60;;;8.02;;
20283;SDS011;10301;50.832;4.080;2022-09-03T02:55:10;10.65;;;8.93;;
20283;SDS011;10301;50.832;4.080;2022-09-03T02:57:36;12.10;;;9.10;;
20283;SDS011;10301;50.832;4.080;2022-09-03T03:00:03;14.10;;;10.43;;
20283;SDS011;10301;50.832;4.080;2022-09-03T03:02:29;13.50;;;9.63;;
20283;SDS011;10301;50.832;4.080;2022-09-03T03:04:54;14.05;;;11.32;;
20283;SDS011;10301;50.832;4.080;2022-09-03T03:07:20;20.58;;;12.15;;
20283;SDS011;10301;50.832;4.080;2022-09-03T03:09:45;14.15;;;11.23;;
20283;SDS011;10301;50.832;4.080;2022-09-03T03:12:14;14.50;;;11.20;;
20283;SDS011;10301;50.832;4.080;2022-09-03T03:14:41;14.50;;;11.10;;
20283;SDS011;10301;50.832;4.080;2022-09-03T03:17:07;12.98;;;10.40;;
20283;SDS011;10301;50.832;4.080;2022-09-03T03:19:33;17.08;;;11.52;;
20283;SDS011;10301;50.832;4.080;2022-09-03T03:21:59;13.95;;;10.77;;
20283;SDS011;10301;50.832;4.080;2022-09-03T03:24:24;14.10;;;11.20;;
20283;SDS011;10301;50.832;4.080;2022-09-03T03:26:50;19.40;;;12.50;;
20283;SDS011;10301;50.832;4.080;2022-09-03T03:29:21;16.98;;;12.55;;
20283;SDS011;10301;50.832;4.080;2022-09-03T03:31:49;16.55;;;12.18;;
20283;SDS011;10301;50.832;4.080;2022-09-03T03:34:15;19.67;;;12.88;;
20283;SDS011;10301;50.832;4.080;2022-09-03T03:36:40;16.08;;;12.70;;
20283;SDS011;10301;50.832;4.080;2022-09-03T03:39:06;16.30;;;12.43;;
20283;SDS011;10301;50.832;4.080;2022-09-03T03:41:33;16.60;;;12.48;;
20283;SDS011;10301;50.832;4.080;2022-09-03T03:44:08;16.23;;;12.77;;
20283;SDS011;10301;50.832;4.080;2022-09-03T03:46:35;18.55;;;11.82;;
20283;SDS011;10301;50.832;4.080;2022-09-03T03:49:03;16.73;;;12.95;;
20283;SDS011;10301;50.832;4.080;2022-09-03T03:51:30;17.70;;;12.13;;
20283;SDS011;10301;50.832;4.080;2022-09-03T03:53:56;16.88;;;12.88;;
20283;SDS011;10301;50.832;4.080;2022-09-03T03:56:23;17.83;;;14.00;;
20283;SDS011;10301;50.832;4.080;2022-09-03T03:58:50;19.10;;;15.63;;
20283;SDS011;10301;50.832;4.080;2022-09-03T04:01:20;21.45;;;15.43;;
20283;SDS011;10301;50.832;4.080;2022-09-03T04:03:47;20.42;;;14.65;;
20283;SDS011;10301;50.832;4.080;2022-09-03T04:06:14;19.23;;;14.18;;
20283;SDS011;10301;50.832;4.080;2022-09-03T04:08:42;19.10;;;14.85;;
20283;SDS011;10301;50.832;4.080;2022-09-03T04:11:10;19.65;;;15.57;;
20283;SDS011;10301;50.832;4.080;2022-09-03T04:13:39;19.00;;;14.45;;
20283;SDS011;10301;50.832;4.080;2022-09-03T04:16:10;17.40;;;14.45;;
20283;SDS011;10301;50.832;4.080;2022-09-03T04:18:37;18.52;;;14.02;;
20283;SDS011;10301;50.832;4.080;2022-09-03T04:23:31;18.67;;;15.07;;
20283;SDS011;10301;50.832;4.080;2022-09-03T04:25:57;19.05;;;14.32;;
20283;SDS011;10301;50.832;4.080;2022-09-03T04:28:23;18.85;;;14.25;;
20283;SDS011;10301;50.832;4.080;2022-09-03T04:30:49;19.85;;;15.40;;
20283;SDS011;10301;50.832;4.080;2022-09-03T04:33:15;22.13;;;15.43;;
20283;SDS011;10301;50.832;4.080;2022-09-03T04:35:40;17.98;;;13.35;;
20283;SDS011;10301;50.832;4.080;2022-09-03T04:38:07;19.35;;;14.65;;
20283;SDS011;10301;50.832;4.080;2022-09-03T04:40:32;20.85;;;15.00;;
20283;SDS011;10301;50.832;4.080;2022-09-03T04:42:58;18.70;;;14.65;;
20283;SDS011;10301;50.832;4.080;2022-09-03T04:45:24;20.02;;;14.73;;
20283;SDS011;10301;50.832;4.080;2022-09-03T04:47:55;17.92;;;13.45;;
20283;SDS011;10301;50.832;4.080;2022-09-03T04:50:27;17.85;;;14.45;;
20283;SDS011;10301;50.832;4.080;2022-09-03T04:52:59;17.77;;;13.52;;
20283;SDS011;10301;50.832;4.080;2022-09-03T04:55:26;17.90;;;13.27;;
20283;SDS011;10301;50.832;4.080;2022-09-03T04:57:52;18.02;;;13.50;;
20283;SDS011;10301;50.832;4.080;2022-09-03T05:00:18;19.10;;;13.45;;
20283;SDS011;10301;50.832;4.080;2022-09-03T05:02:44;17.42;;;13.63;;
20283;SDS011;10301;50.832;4.080;2022-09-03T05:05:15;18.45;;;13.82;;
20283;SDS011;10301;50.832;4.080;2022-09-03T05:07:41;15.70;;;12.85;;
20283;SDS011;10301;50.832;4.080;2022-09-03T05:10:08;16.73;;;13.43;;
20283;SDS011;10301;50.832;4.080;2022-09-03T05:12:37;15.02;;;12.23;;
20283;SDS011;10301;50.832;4.080;2022-09-03T05:15:03;15.93;;;12.15;;
20283;SDS011;10301;50.832;4.080;2022-09-03T05:17:30;16.67;;;12.10;;
20283;SDS011;10301;50.832;4.080;2022-09-03T05:19:55;15.18;;;11.48;;
20283;SDS011;10301;50.832;4.080;2022-09-03T05:22:21;23.98;;;11.82;;
20283;SDS011;10301;50.832;4.080;2022-09-03T05:24:47;24.20;;;11.68;;
20283;SDS011;10301;50.832;4.080;2022-09-03T05:27:14;27.27;;;12.15;;
20283;SDS011;10301;50.832;4.080;2022-09-03T05:29:43;20.30;;;12.32;;
20283;SDS011;10301;50.832;4.080;2022-09-03T05:32:09;16.40;;;13.23;;
20283;SDS011;10301;50.832;4.080;2022-09-03T05:34:36;25.05;;;14.13;;
20283;SDS011;10301;50.832;4.080;2022-09-03T05:37:02;19.67;;;12.85;;
20283;SDS011;10301;50.832;4.080;2022-09-03T05:39:28;17.35;;;12.65;;
20283;SDS011;10301;50.832;4.080;2022-09-03T05:41:53;21.15;;;11.57;;
20283;SDS011;10301;50.832;4.080;2022-09-03T05:44:19;19.00;;;11.30;;
20283;SDS011;10301;50.832;4.080;2022-09-03T05:46:47;22.80;;;10.70;;
20283;SDS011;10301;50.832;4.080;2022-09-03T05:49:14;22.80;;;10.18;;
20283;SDS011;10301;50.832;4.080;2022-09-03T05:51:39;19.90;;;9.35;;
20283;SDS011;10301;50.832;4.080;2022-09-03T05:54:06;19.98;;;10.13;;
20283;SDS011;10301;50.832;4.080;2022-09-03T05:56:33;22.17;;;12.30;;
20283;SDS011;10301;50.832;4.080;2022-09-03T05:59:00;15.55;;;10.88;;
20283;SDS011;10301;50.832;4.080;2022-09-03T06:01:31;16.95;;;10.82;;
20283;SDS011;10301;50.832;4.080;2022-09-03T06:04:10;19.73;;;10.20;;
20283;SDS011;10301;50.832;4.080;2022-09-03T06:06:37;21.05;;;10.95;;
20283;SDS011;10301;50.832;4.080;2022-09-03T06:09:09;31.70;;;10.57;;
20283;SDS011;10301;50.832;4.080;2022-09-03T06:11:40;34.55;;;12.05;;
20283;SDS011;10301;50.832;4.080;2022-09-03T06:14:07;23.92;;;10.48;;
20283;SDS011;10301;50.832;4.080;2022-09-03T06:16:36;27.20;;;9.43;;
20283;SDS011;10301;50.832;4.080;2022-09-03T06:19:04;20.75;;;9.23;;
20283;SDS011;10301;50.832;4.080;2022-09-03T06:21:34;25.48;;;10.10;;
20283;SDS011;10301;50.832;4.080;2022-09-03T06:24:00;18.63;;;10.43;;
20283;SDS011;10301;50.832;4.080;2022-09-03T06:26:27;17.23;;;10.50;;
20283;SDS011;10301;50.832;4.080;2022-09-03T06:28:53;19.58;;;11.32;;
20283;SDS011;10301;50.832;4.080;2022-09-03T06:31:20;16.85;;;11.43;;
20283;SDS011;10301;50.832;4.080;2022-09-03T06:33:47;20.10;;;11.57;;
20283;SDS011;10301;50.832;4.080;2022-09-03T06:36:16;15.77;;;9.90;;
20283;SDS011;10301;50.832;4.080;2022-09-03T06:38:43;11.15;;;8.15;;
20283;SDS011;10301;50.832;4.080;2022-09-03T06:41:11;15.60;;;9.18;;
20283;SDS011;10301;50.832;4.080;2022-09-03T06:43:39;11.98;;;7.53;;
20283;SDS011;10301;50.832;4.080;2022-09-03T06:46:10;9.48;;;6.60;;
20283;SDS011;10301;50.832;4.080;2022-09-03T06:48:38;11.07;;;6.30;;
20283;SDS011;10301;50.832;4.080;2022-09-03T06:51:08;9.90;;;6.70;;
20283;SDS011;10301;50.832;4.080;2022-09-03T06:53:37;10.60;;;6.97;;
20283;SDS011;10301;50.832;4.080;2022-09-03T06:56:08;10.98;;;6.57;;
20283;SDS011;10301;50.832;4.080;2022-09-03T06:58:40;9.55;;;6.90;;
20283;SDS011;10301;50.832;4.080;2022-09-03T07:01:12;11.27;;;6.65;;
20283;SDS011;10301;50.832;4.080;2022-09-03T07:03:43;12.95;;;7.38;;
20283;SDS011;10301;50.832;4.080;2022-09-03T07:06:12;12.07;;;7.68;;
20283;SDS011;10301;50.832;4.080;2022-09-03T07:08:41;12.82;;;7.57;;
20283;SDS011;10301;50.832;4.080;2022-09-03T07:11:11;12.57;;;7.07;;
20283;SDS011;10301;50.832;4.080;2022-09-03T07:13:39;12.13;;;7.88;;
20283;SDS011;10301;50.832;4.080;2022-09-03T07:16:18;11.77;;;7.20;;
20283;SDS011;10301;50.832;4.080;2022-09-03T07:18:45;10.63;;;7.95;;
20283;SDS011;10301;50.832;4.080;2022-09-03T07:21:15;9.73;;;7.30;;
20283;SDS011;10301;50.832;4.080;2022-09-03T07:23:42;12.32;;;8.43;;
20283;SDS011;10301;50.832;4.080;2022-09-03T07:26:13;13.40;;;7.57;;
20283;SDS011;10301;50.832;4.080;2022-09-03T07:28:41;11.73;;;7.35;;
20283;SDS011;10301;50.832;4.080;2022-09-03T07:31:09;11.63;;;7.57;;
20283;SDS011;10301;50.832;4.080;2022-09-03T07:33:40;10.65;;;7.60;;
20283;SDS011;10301;50.832;4.080;2022-09-03T07:36:07;13.40;;;7.20;;
20283;SDS011;10301;50.832;4.080;2022-09-03T07:38:38;12.32;;;7.65;;
20283;SDS011;10301;50.832;4.080;2022-09-03T07:41:05;13.23;;;7.40;;
20283;SDS011;10301;50.832;4.080;2022-09-03T07:43:39;12.35;;;8.45;;
20283;SDS011;10301;50.832;4.080;2022-09-03T07:46:11;10.05;;;7.85;;
20283;SDS011;10301;50.832;4.080;2022-09-03T07:48:40;11.10;;;8.65;;
20283;SDS011;10301;50.832;4.080;2022-09-03T07:51:07;14.57;;;8.60;;
20283;SDS011;10301;50.832;4.080;2022-09-03T07:53:33;17.75;;;8.70;;
20283;SDS011;10301;50.832;4.080;2022-09-03T07:56:00;15.52;;;9.18;;
20283;SDS011;10301;50.832;4.080;2022-09-03T07:58:28;14.15;;;9.35;;
20283;SDS011;10301;50.832;4.080;2022-09-03T08:00:54;11.82;;;8.75;;
20283;SDS011;10301;50.832;4.080;2022-09-03T08:03:21;11.82;;;9.43;;
20283;SDS011;10301;50.832;4.080;2022-09-03T08:05:46;13.38;;;8.73;;
20283;SDS011;10301;50.832;4.080;2022-09-03T08:08:12;12.82;;;8.60;;
20283;SDS011;10301;50.832;4.080;2022-09-03T08:10:39;12.20;;;8.75;;
20283;SDS011;10301;50.832;4.080;2022-09-03T08:13:05;15.23;;;8.80;;
20283;SDS011;10301;50.832;4.080;2022-09-03T08:15:31;10.57;;;8.05;;
20283;SDS011;10301;50.832;4.080;2022-09-03T08:17:58;10.15;;;7.47;;
20283;SDS011;10301;50.832;4.080;2022-09-03T08:20:25;15.73;;;7.97;;
20283;SDS011;10301;50.832;4.080;2022-09-03T08:22:51;12.90;;;7.60;;
20283;SDS011;10301;50.832;4.080;2022-09-03T08:25:17;12.60;;;7.82;;
20283;SDS011;10301;50.832;4.080;2022-09-03T08:27:43;10.23;;;6.97;;
20283;SDS011;10301;50.832;4.080;2022-09-03T08:30:08;11.55;;;7.55;;
20283;SDS011;10301;50.832;4.080;2022-09-03T08:32:36;13.63;;;7.50;;
20283;SDS011;10301;50.832;4.080;2022-09-03T08:35:05;15.25;;;7.80;;
20283;SDS011;10301;50.832;4.080;2022-09-03T08:37:31;12.90;;;7.95;;
20283;SDS011;10301;50.832;4.080;2022-09-03T08:39:57;12.77;;;7.72;;
20283;SDS011;10301;50.832;4.080;2022-09-03T08:45:20;12.93;;;7.43;;
20283;SDS011;10301;50.832;4.080;2022-09-03T08:50:31;11.48;;;7.18;;
20283;SDS011;10301;50.832;4.080;2022-09-03T08:53:16;15.15;;;7.10;;
20283;SDS011;10301;50.832;4.080;2022-09-03T08:58:35;11.43;;;7.80;;
20283;SDS011;10301;50.832;4.080;2022-09-03T09:17:40;9.00;;;6.65;;
20283;SDS011;10301;50.832;4.080;2022-09-03T09:23:03;10.25;;;6.53;;
20283;SDS011;10301;50.832;4.080;2022-09-03T09:25:31;14.43;;;6.82;;
20283;SDS011;10301;50.832;4.080;2022-09-03T09:31:03;13.60;;;6.85;;
20283;SDS011;10301;50.832;4.080;2022-09-03T09:33:31;7.07;;;5.82;;
20283;SDS011;10301;50.832;4.080;2022-09-03T09:36:05;10.23;;;6.22;;
20283;SDS011;10301;50.832;4.080;2022-09-03T09:38:35;9.68;;;6.25;;
20283;SDS011;10301;50.832;4.080;2022-09-03T09:41:08;11.73;;;7.00;;
20283;SDS011;10301;50.832;4.080;2022-09-03T09:43:42;17.20;;;7.10;;
20283;SDS011;10301;50.832;4.080;2022-09-03T09:46:13;10.57;;;7.03;;
20283;SDS011;10301;50.832;4.080;2022-09-03T09:48:50;10.00;;;6.63;;
20283;SDS011;10301;50.832;4.080;2022-09-03T09:54:14;8.68;;;7.05;;
20283;SDS011;10301;50.832;4.080;2022-09-03T09:56:46;9.20;;;6.07;;
20283;SDS011;10301;50.832;4.080;2022-09-03T09:59:23;9.93;;;6.47;;
20283;SDS011;10301;50.832;4.080;2022-09-03T10:01:48;7.97;;;6.43;;
20283;SDS011;10301;50.832;4.080;2022-09-03T10:04:21;9.57;;;6.95;;
20283;SDS011;10301;50.832;4.080;2022-09-03T10:06:54;9.20;;;7.13;;
20283;SDS011;10301;50.832;4.080;2022-09-03T10:09:24;10.70;;;8.00;;
20283;SDS011;10301;50.832;4.080;2022-09-03T10:14:39;13.20;;;8.40;;
20283;SDS011;10301;50.832;4.080;2022-09-03T10:22:56;10.88;;;6.93;;
20283;SDS011;10301;50.832;4.080;2022-09-03T10:25:47;10.15;;;7.95;;
20283;SDS011;10301;50.832;4.080;2022-09-03T10:28:32;11.40;;;7.72;;
20283;SDS011;10301;50.832;4.080;2022-09-03T10:31:49;10.10;;;7.47;;
20283;SDS011;10301;50.832;4.080;2022-09-03T10:48:10;12.18;;;8.90;;
20283;SDS011;10301;50.832;4.080;2022-09-03T10:50:46;15.85;;;10.20;;
20283;SDS011;10301;50.832;4.080;2022-09-03T10:56:48;11.80;;;8.57;;
20283;SDS011;10301;50.832;4.080;2022-09-03T10:58:58;15.43;;;10.25;;
20283;SDS011;10301;50.832;4.080;2022-09-03T11:04:52;14.95;;;10.65;;
20283;SDS011;10301;50.832;4.080;2022-09-03T11:07:25;13.52;;;9.45;;
20283;SDS011;10301;50.832;4.080;2022-09-03T11:10:00;14.52;;;10.50;;
20283;SDS011;10301;50.832;4.080;2022-09-03T11:12:42;14.70;;;9.50;;
20283;SDS011;10301;50.832;4.080;2022-09-03T11:20:47;14.27;;;10.82;;
20283;SDS011;10301;50.832;4.080;2022-09-03T11:23:14;17.40;;;11.57;;
20283;SDS011;10301;50.832;4.080;2022-09-03T11:25:45;15.98;;;10.35;;
20283;SDS011;10301;50.832;4.080;2022-09-03T11:28:22;17.63;;;9.40;;
20283;SDS011;10301;50.832;4.080;2022-09-03T11:33:59;9.68;;;7.68;;
20283;SDS011;10301;50.832;4.080;2022-09-03T11:36:38;12.60;;;8.50;;
20283;SDS011;10301;50.832;4.080;2022-09-03T11:39:19;9.88;;;7.07;;
20283;SDS011;10301;50.832;4.080;2022-09-03T11:42:00;8.77;;;5.28;;
20283;SDS011;10301;50.832;4.080;2022-09-03T11:44:37;8.73;;;5.82;;
20283;SDS011;10301;50.832;4.080;2022-09-03T11:47:50;8.50;;;6.00;;
20283;SDS011;10301;50.832;4.080;2022-09-03T11:50:18;7.45;;;5.13;;
20283;SDS011;10301;50.832;4.080;2022-09-03T11:52:45;10.23;;;4.30;;
20283;SDS011;10301;50.832;4.080;2022-09-03T11:55:22;8.27;;;4.25;;
20283;SDS011;10301;50.832;4.080;2022-09-03T11:57:56;6.80;;;4.82;;
20283;SDS011;10301;50.832;4.080;2022-09-03T12:00:22;7.07;;;5.50;;
20283;SDS011;10301;50.832;4.080;2022-09-03T12:02:56;8.23;;;5.10;;
20283;SDS011;10301;50.832;4.080;2022-09-03T12:08:08;7.15;;;4.90;;
20283;SDS011;10301;50.832;4.080;2022-09-03T12:11:01;7.10;;;4.35;;
20283;SDS011;10301;50.832;4.080;2022-09-03T12:20:10;7.10;;;3.90;;
20283;SDS011;10301;50.832;4.080;2022-09-03T12:22:19;6.93;;;4.45;;
20283;SDS011;10301;50.832;4.080;2022-09-03T12:24:46;7.63;;;4.32;;
20283;SDS011;10301;50.832;4.080;2022-09-03T12:27:19;6.72;;;4.32;;
20283;SDS011;10301;50.832;4.080;2022-09-03T12:29:52;6.25;;;4.22;;
20283;SDS011;10301;50.832;4.080;2022-09-03T12:32:35;6.97;;;4.53;;
20283;SDS011;10301;50.832;4.080;2022-09-03T12:35:17;7.75;;;5.03;;
20283;SDS011;10301;50.832;4.080;2022-09-03T12:37:45;8.00;;;5.90;;
20283;SDS011;10301;50.832;4.080;2022-09-03T12:40:21;9.70;;;5.97;;
20283;SDS011;10301;50.832;4.080;2022-09-03T12:42:50;9.65;;;6.00;;
20283;SDS011;10301;50.832;4.080;2022-09-03T12:45:23;10.32;;;6.43;;
20283;SDS011;10301;50.832;4.080;2022-09-03T12:47:50;8.35;;;6.22;;
20283;SDS011;10301;50.832;4.080;2022-09-03T12:50:21;8.98;;;5.93;;
20283;SDS011;10301;50.832;4.080;2022-09-03T12:53:00;11.13;;;6.25;;
20283;SDS011;10301;50.832;4.080;2022-09-03T12:57:59;8.70;;;5.60;;
20283;SDS011;10301;50.832;4.080;2022-09-03T13:00:32;7.30;;;4.60;;
20283;SDS011;10301;50.832;4.080;2022-09-03T13:03:05;6.50;;;3.88;;
20283;SDS011;10301;50.832;4.080;2022-09-03T13:05:42;8.80;;;3.65;;
20283;SDS011;10301;50.832;4.080;2022-09-03T13:08:14;7.32;;;4.00;;
20283;SDS011;10301;50.832;4.080;2022-09-03T13:10:52;8.43;;;4.53;;
20283;SDS011;10301;50.832;4.080;2022-09-03T13:13:25;6.45;;;4.47;;
20283;SDS011;10301;50.832;4.080;2022-09-03T13:19:08;4.40;;;2.72;;
20283;SDS011;10301;50.832;4.080;2022-09-03T13:43:26;4.82;;;3.22;;
20283;SDS011;10301;50.832;4.080;2022-09-03T13:48:42;5.60;;;3.55;;
20283;SDS011;10301;50.832;4.080;2022-09-03T13:51:36;6.07;;;3.33;;
20283;SDS011;10301;50.832;4.080;2022-09-03T13:57:03;7.03;;;3.20;;
20283;SDS011;10301;50.832;4.080;2022-09-03T13:59:47;9.77;;;3.63;;
20283;SDS011;10301;50.832;4.080;2022-09-03T14:05:08;5.63;;;3.20;;
20283;SDS011;10301;50.832;4.080;2022-09-03T14:07:45;6.18;;;3.40;;
20283;SDS011;10301;50.832;4.080;2022-09-03T14:13:31;10.38;;;3.88;;
20283;SDS011;10301;50.832;4.080;2022-09-03T14:18:55;11.20;;;4.60;;
20283;SDS011;10301;50.832;4.080;2022-09-03T14:21:43;19.88;;;5.80;;
20283;SDS011;10301;50.832;4.080;2022-09-03T14:24:20;11.75;;;4.70;;
20283;SDS011;10301;50.832;4.080;2022-09-03T14:27:04;11.40;;;4.07;;
20283;SDS011;10301;50.832;4.080;2022-09-03T14:29:32;6.22;;;3.80;;
20283;SDS011;10301;50.832;4.080;2022-09-03T14:34:54;11.88;;;4.90;;
20283;SDS011;10301;50.832;4.080;2022-09-03T14:48:24;7.90;;;4.10;;
20283;SDS011;10301;50.832;4.080;2022-09-03T14:51:22;11.02;;;4.15;;
20283;SDS011;10301;50.832;4.080;2022-09-03T15:07:46;9.82;;;3.90;;
20283;SDS011;10301;50.832;4.080;2022-09-03T15:13:06;12.25;;;5.10;;
20283;SDS011;10301;50.832;4.080;2022-09-03T15:18:15;5.53;;;3.47;;
20283;SDS011;10301;50.832;4.080;2022-09-03T15:20:51;7.68;;;5.00;;
20283;SDS011;10301;50.832;4.080;2022-09-03T15:23:38;9.20;;;3.72;;
20283;SDS011;10301;50.832;4.080;2022-09-03T15:35:04;6.32;;;3.67;;
20283;SDS011;10301;50.832;4.080;2022-09-03T15:37:47;7.30;;;4.03;;
20283;SDS011;10301;50.832;4.080;2022-09-03T15:42:59;6.10;;;3.65;;
20283;SDS011;10301;50.832;4.080;2022-09-03T15:45:35;6.28;;;3.85;;
20283;SDS011;10301;50.832;4.080;2022-09-03T15:56:40;6.38;;;3.25;;
20283;SDS011;10301;50.832;4.080;2022-09-03T16:01:51;5.75;;;3.33;;
20283;SDS011;10301;50.832;4.080;2022-09-03T16:04:28;6.35;;;3.60;;
20283;SDS011;10301;50.832;4.080;2022-09-03T16:15:39;5.72;;;3.50;;
20283;SDS011;10301;50.832;4.080;2022-09-03T16:20:56;5.18;;;3.10;;
20283;SDS011;10301;50.832;4.080;2022-09-03T16:28:52;7.47;;;3.72;;
20283;SDS011;10301;50.832;4.080;2022-09-03T16:42:30;7.78;;;4.72;;
20283;SDS011;10301;50.832;4.080;2022-09-03T16:45:29;7.05;;;4.60;;
20283;SDS011;10301;50.832;4.080;2022-09-03T16:54:14;7.80;;;4.85;;
20283;SDS011;10301;50.832;4.080;2022-09-03T17:05:36;8.02;;;3.90;;
20283;SDS011;10301;50.832;4.080;2022-09-03T17:11:18;5.18;;;3.53;;
20283;SDS011;10301;50.832;4.080;2022-09-03T17:22:49;6.70;;;3.53;;
20283;SDS011;10301;50.832;4.080;2022-09-03T17:25:35;7.78;;;3.80;;
20283;SDS011;10301;50.832;4.080;2022-09-03T17:33:48;5.55;;;3.42;;
20283;SDS011;10301;50.832;4.080;2022-09-03T17:36:27;7.00;;;3.95;;
20283;SDS011;10301;50.832;4.080;2022-09-03T17:41:33;6.43;;;3.90;;
20283;SDS011;10301;50.832;4.080;2022-09-03T17:44:16;7.40;;;4.13;;
20283;SDS011;10301;50.832;4.080;2022-09-03T17:52:28;6.82;;;3.75;;
20283;SDS011;10301;50.832;4.080;2022-09-03T17:54:59;8.23;;;4.28;;
20283;SDS011;10301;50.832;4.080;2022-09-03T17:57:42;8.15;;;4.32;;
20283;SDS011;10301;50.832;4.080;2022-09-03T18:00:34;9.85;;;4.38;;
20283;SDS011;10301;50.832;4.080;2022-09-03T18:03:00;6.38;;;4.18;;
20283;SDS011;10301;50.832;4.080;2022-09-03T18:05:47;9.27;;;5.13;;
20283;SDS011;10301;50.832;4.080;2022-09-03T18:11:40;7.70;;;5.32;;
20283;SDS011;10301;50.832;4.080;2022-09-03T18:14:18;11.50;;;5.35;;
20283;SDS011;10301;50.832;4.080;2022-09-03T18:17:10;6.78;;;5.30;;
20283;SDS011;10301;50.832;4.080;2022-09-03T18:19:45;8.00;;;5.22;;
20283;SDS011;10301;50.832;4.080;2022-09-03T18:25:25;8.27;;;4.93;;
20283;SDS011;10301;50.832;4.080;2022-09-03T18:28:11;7.38;;;4.95;;
20283;SDS011;10301;50.832;4.080;2022-09-03T18:30:58;6.28;;;4.90;;
20283;SDS011;10301;50.832;4.080;2022-09-03T18:33:43;11.63;;;5.45;;
20283;SDS011;10301;50.832;4.080;2022-09-03T18:36:27;9.02;;;5.50;;
20283;SDS011;10301;50.832;4.080;2022-09-03T18:39:15;8.43;;;5.68;;
20283;SDS011;10301;50.832;4.080;2022-09-03T18:56:52;7.78;;;5.13;;
20283;SDS011;10301;50.832;4.080;2022-09-03T18:59:41;7.40;;;5.32;;
20283;SDS011;10301;50.832;4.080;2022-09-03T19:17:59;9.10;;;4.78;;
20283;SDS011;10301;50.832;4.080;2022-09-03T19:24:01;7.78;;;5.50;;
20283;SDS011;10301;50.832;4.080;2022-09-03T19:29:59;7.97;;;5.28;;
20283;SDS011;10301;50.832;4.080;2022-09-03T19:32:57;9.20;;;5.72;;
20283;SDS011;10301;50.832;4.080;2022-09-03T19:44:58;7.85;;;5.82;;
20283;SDS011;10301;50.832;4.080;2022-09-03T19:50:57;9.60;;;5.55;;
20283;SDS011;10301;50.832;4.080;2022-09-03T19:53:47;10.15;;;5.50;;
20283;SDS011;10301;50.832;4.080;2022-09-03T19:56:32;7.03;;;4.75;;
20283;SDS011;10301;50.832;4.080;2022-09-03T19:59:19;8.00;;;5.18;;
20283;SDS011;10301;50.832;4.080;2022-09-03T20:02:06;7.70;;;5.45;;
20283;SDS011;10301;50.832;4.080;2022-09-03T20:04:53;9.73;;;5.20;;
20283;SDS011;10301;50.832;4.080;2022-09-03T20:07:48;10.20;;;5.63;;
20283;SDS011;10301;50.832;4.080;2022-09-03T20:10:34;7.10;;;4.93;;
20283;SDS011;10301;50.832;4.080;2022-09-03T20:13:05;7.30;;;4.55;;
20283;SDS011;10301;50.832;4.080;2022-09-03T20:18:38;8.82;;;4.30;;
20283;SDS011;10301;50.832;4.080;2022-09-03T20:21:25;7.82;;;4.43;;
20283;SDS011;10301;50.832;4.080;2022-09-03T20:24:20;6.68;;;4.50;;
20283;SDS011;10301;50.832;4.080;2022-09-03T20:30:02;11.65;;;5.57;;
20283;SDS011;10301;50.832;4.080;2022-09-03T20:32:34;7.97;;;5.30;;
20283;SDS011;10301;50.832;4.080;2022-09-03T20:37:37;8.45;;;4.97;;
20283;SDS011;10301;50.832;4.080;2022-09-03T20:43:09;9.80;;;5.50;;
20283;SDS011;10301;50.832;4.080;2022-09-03T20:46:18;7.78;;;4.55;;
20283;SDS011;10301;50.832;4.080;2022-09-03T20:52:41;6.40;;;4.30;;
20283;SDS011;10301;50.832;4.080;2022-09-03T20:57:50;7.38;;;4.50;;
20283;SDS011;10301;50.832;4.080;2022-09-03T21:01:00;8.77;;;4.65;;
20283;SDS011;10301;50.832;4.080;2022-09-03T21:03:42;8.63;;;4.65;;
20283;SDS011;10301;50.832;4.080;2022-09-03T21:07:11;6.65;;;3.97;;
20283;SDS011;10301;50.832;4.080;2022-09-03T21:12:15;6.75;;;4.18;;
20283;SDS011;10301;50.832;4.080;2022-09-03T21:22:51;7.40;;;4.53;;
20283;SDS011;10301;50.832;4.080;2022-09-03T21:25:47;7.85;;;4.45;;
20283;SDS011;10301;50.832;4.080;2022-09-03T21:28:37;11.05;;;5.35;;
20283;SDS011;10301;50.832;4.080;2022-09-03T21:31:11;7.10;;;4.68;;
20283;SDS011;10301;50.832;4.080;2022-09-03T21:33:39;8.57;;;5.53;;
20283;SDS011;10301;50.832;4.080;2022-09-03T21:36:23;8.65;;;5.32;;
20283;SDS011;10301;50.832;4.080;2022-09-03T21:39:18;8.20;;;5.00;;
20283;SDS011;10301;50.832;4.080;2022-09-03T21:44:30;11.05;;;6.25;;
20283;SDS011;10301;50.832;4.080;2022-09-03T21:47:05;8.35;;;5.70;;